createdAt,value
2017-09-28T00:03:53.957Z,25.50
2017-09-28T00:08:58.398Z,27.20
2017-09-28T00:14:00.284Z,25.93
2017-09-28T00:19:02.149Z,28.67
2017-09-28T00:24:04.016Z,23.50
2017-09-28T00:29:06.537Z,26.00
2017-09-28T00:34:08.348Z,23.40
2017-09-28T00:39:10.216Z,24.53
2017-09-28T00:44:12.029Z,29.20
2017-09-28T00:49:14.711Z,24.80
2017-09-28T00:54:16.565Z,24.60
2017-09-28T00:59:18.448Z,25.23
2017-09-28T01:04:20.280Z,25.77
2017-09-28T01:09:22.230Z,23.97
2017-09-28T01:14:25.904Z,23.40
2017-09-28T01:19:27.788Z,25.33
2017-09-28T01:24:29.898Z,23.77
2017-09-28T01:29:32.616Z,20.07
2017-09-28T01:34:36.277Z,28.20
2017-09-28T01:39:38.398Z,22.13
2017-09-28T01:44:41.547Z,24.47
2017-09-28T01:49:44.383Z,24.93
2017-09-28T01:54:46.460Z,24.20
2017-09-28T01:59:48.787Z,22.53
2017-09-28T02:04:51.858Z,25.60
2017-09-28T02:09:54.110Z,25.33
2017-09-28T02:14:56.132Z,25.50
2017-09-28T02:19:58.006Z,27.80
2017-09-28T02:25:00.518Z,23.17
2017-09-28T02:30:02.356Z,24.90
2017-09-28T02:35:04.888Z,26.13
2017-09-28T02:40:21.648Z,23.53
2017-09-28T02:45:41.065Z,27.50
2017-09-28T02:51:00.951Z,22.87
2017-09-28T02:56:21.208Z,28.77
2017-09-28T03:01:26.106Z,23.33
2017-09-28T03:06:47.644Z,28.30
2017-09-28T03:11:52.750Z,23.87
2017-09-28T03:17:09.689Z,24.63
2017-09-28T03:22:14.777Z,25.13
2017-09-28T03:27:20.846Z,24.20
2017-09-28T03:32:22.763Z,25.10
2017-09-28T03:37:24.665Z,28.50
2017-09-28T03:42:26.512Z,23.93
2017-09-28T03:47:29.661Z,27.03
2017-09-28T03:52:31.526Z,26.67
2017-09-28T03:57:33.403Z,28.33
2017-09-28T04:02:35.209Z,36.07
2017-09-28T04:07:37.096Z,26.30
2017-09-28T04:12:38.992Z,26.20
2017-09-28T04:17:40.916Z,29.73
2017-09-28T04:22:42.790Z,27.50
2017-09-28T04:27:44.671Z,24.23
2017-09-28T04:32:49.773Z,27.20
2017-09-28T04:37:51.699Z,32.00
2017-09-28T04:42:53.577Z,30.47
2017-09-28T04:47:55.460Z,31.43
2017-09-28T04:52:57.269Z,28.33
2017-09-28T04:57:59.213Z,28.90
2017-09-28T05:03:01.089Z,26.07
2017-09-28T05:08:02.847Z,32.00
2017-09-28T05:13:04.613Z,35.93
2017-09-28T05:18:06.517Z,35.60
2017-09-28T05:23:08.364Z,36.37
2017-09-28T05:28:10.244Z,35.80
2017-09-28T05:33:12.764Z,36.33
2017-09-28T05:38:15.868Z,27.80
2017-09-28T05:43:17.950Z,32.10
2017-09-28T05:48:19.802Z,40.90
2017-09-28T05:53:21.571Z,31.43
2017-09-28T05:58:23.480Z,30.00
2017-09-28T06:03:25.537Z,29.20
2017-09-28T06:08:27.373Z,31.90
2017-09-28T06:13:29.318Z,24.90
2017-09-28T06:18:32.218Z,32.30
2017-09-28T06:23:34.072Z,35.80
2017-09-28T06:28:35.974Z,33.67
2017-09-28T06:33:37.788Z,32.20
2017-09-28T06:38:39.656Z,34.33
2017-09-28T06:43:42.113Z,46.53
2017-09-28T06:48:44.074Z,37.37
2017-09-28T06:53:45.771Z,41.77
2017-09-28T06:58:47.585Z,39.23
2017-09-28T07:03:51.596Z,37.90
2017-09-28T07:08:55.236Z,38.87
2017-09-28T07:13:57.105Z,39.60
2017-09-28T07:18:59.029Z,37.47
2017-09-28T07:24:00.863Z,35.37
2017-09-28T07:29:02.728Z,39.67
2017-09-28T07:34:06.286Z,37.77
2017-09-28T07:39:08.157Z,31.90
2017-09-28T07:44:10.009Z,36.77
2017-09-28T07:49:11.880Z,34.33
2017-09-28T07:54:14.420Z,35.93
2017-09-28T07:59:16.252Z,31.10
2017-09-28T08:04:18.752Z,29.40
2017-09-28T08:09:20.635Z,29.47
2017-09-28T08:14:22.505Z,30.70
2017-09-28T08:19:24.401Z,30.70
2017-09-28T08:24:26.222Z,32.17
2017-09-28T08:29:28.780Z,38.50
2017-09-28T08:34:30.610Z,35.13
2017-09-28T08:39:37.012Z,38.50
2017-09-28T08:44:38.884Z,40.20
2017-09-28T08:49:40.808Z,36.60
2017-09-28T08:54:42.744Z,38.50
2017-09-28T08:59:45.227Z,41.23
2017-09-28T09:04:48.092Z,43.87
2017-09-28T09:09:50.832Z,42.20
2017-09-28T09:14:52.701Z,42.00
2017-09-28T09:19:55.309Z,37.97
2017-09-28T09:24:57.183Z,41.47
2017-09-28T09:29:58.964Z,42.40
2017-09-28T09:35:00.895Z,41.20
2017-09-28T09:40:02.748Z,37.50
2017-09-28T09:45:04.592Z,41.20
2017-09-28T09:50:06.426Z,47.77
2017-09-28T09:55:08.356Z,43.13
2017-09-28T10:00:10.289Z,40.37
2017-09-28T10:05:12.114Z,42.20
2017-09-28T10:10:16.387Z,38.40
2017-09-28T10:15:22.093Z,46.47
2017-09-28T10:20:24.750Z,45.77
2017-09-28T10:25:26.668Z,48.47
2017-09-28T10:30:28.498Z,44.43
2017-09-28T10:35:31.268Z,47.90
2017-09-28T10:40:33.141Z,47.07
2017-09-28T10:45:35.016Z,43.90
2017-09-28T10:50:36.887Z,43.40
2017-09-28T10:55:38.816Z,43.50
2017-09-28T11:00:40.568Z,46.37
2017-09-28T11:05:42.316Z,43.50
2017-09-28T11:10:44.052Z,39.13
2017-09-28T11:15:45.878Z,41.13
2017-09-28T11:20:47.625Z,41.90
2017-09-28T11:25:51.471Z,35.17
2017-09-28T11:30:53.292Z,35.80
2017-09-28T11:35:55.216Z,40.07
2017-09-28T11:40:57.105Z,32.53
2017-09-28T11:45:58.967Z,33.17
2017-09-28T11:51:00.853Z,29.30
2017-09-28T11:56:02.737Z,30.57
2017-09-28T12:01:05.837Z,28.23
2017-09-28T12:06:07.721Z,29.03
2017-09-28T12:11:09.601Z,22.10
2017-09-28T12:16:11.474Z,22.23
2017-09-28T12:21:13.352Z,25.03
2017-09-28T12:26:15.249Z,22.60
2017-09-28T12:31:17.104Z,18.00
2017-09-28T12:36:19.355Z,19.30
2017-09-28T12:41:21.872Z,15.97
2017-09-28T12:46:24.552Z,22.97
2017-09-28T12:51:27.140Z,21.30
2017-09-28T12:56:31.002Z,22.00
2017-09-28T13:01:32.764Z,18.63
2017-09-28T13:06:34.641Z,17.20
2017-09-28T13:11:36.520Z,18.77
2017-09-28T13:16:38.398Z,20.47
2017-09-28T13:21:40.277Z,21.13
2017-09-28T13:26:42.056Z,23.07
2017-09-28T13:31:43.963Z,19.60
2017-09-28T13:36:45.816Z,19.27
2017-09-28T13:41:47.685Z,16.40
2017-09-28T13:46:49.430Z,19.97
2017-09-28T13:51:51.184Z,30.03
2017-09-28T13:56:53.131Z,14.77
2017-09-28T14:01:54.993Z,15.07
2017-09-28T14:06:56.860Z,16.60
2017-09-28T14:11:59.363Z,17.33
2017-09-28T14:17:01.231Z,15.43
2017-09-28T14:22:03.134Z,16.47
2017-09-28T14:27:05.820Z,14.10
2017-09-28T14:32:07.684Z,12.87
2017-09-28T14:37:09.564Z,11.93
2017-09-28T14:42:11.445Z,9.70
2017-09-28T14:47:13.328Z,13.03
2017-09-28T14:52:15.093Z,11.23
2017-09-28T14:57:17.008Z,10.03
2017-09-28T15:02:18.809Z,9.27
2017-09-28T15:07:20.719Z,10.30
2017-09-28T15:12:23.290Z,11.43
2017-09-28T15:17:25.816Z,10.40
2017-09-28T15:22:27.729Z,11.20
2017-09-28T15:27:29.568Z,10.40
2017-09-28T15:32:31.457Z,10.17
2017-09-28T15:37:33.377Z,9.70
2017-09-28T15:42:35.196Z,9.80
2017-09-28T15:47:37.040Z,11.37
2017-09-28T15:52:38.948Z,11.60
2017-09-28T15:57:40.820Z,16.13
2017-09-28T16:02:42.595Z,28.13
2017-09-28T16:07:45.204Z,25.63
2017-09-28T16:12:47.029Z,15.70
2017-09-28T16:17:49.772Z,18.13
2017-09-28T16:22:51.661Z,12.73
2017-09-28T16:27:53.476Z,13.10
2017-09-28T16:32:55.220Z,10.90
2017-09-28T16:43:29.064Z,10.47
2017-09-28T17:16:15.036Z,14.17
2017-09-28T17:32:38.244Z,26.77
2017-09-28T17:48:47.365Z,12.27
2017-09-28T17:53:50.109Z,13.23
2017-09-28T17:58:54.660Z,12.13
2017-09-28T18:03:57.105Z,12.80
2017-09-28T18:08:59.863Z,12.43
2017-09-28T18:14:01.972Z,22.23
2017-09-28T18:19:03.993Z,14.80
2017-09-28T18:24:06.772Z,14.30
2017-09-28T18:29:09.617Z,15.20
2017-09-28T18:34:11.894Z,17.37
2017-09-28T18:39:16.549Z,15.83
2017-09-28T18:44:19.548Z,17.33
2017-09-28T18:49:27.624Z,15.23
2017-09-28T18:54:29.865Z,18.20
2017-09-28T18:59:32.807Z,14.60
2017-09-28T19:04:36.668Z,18.17
2017-09-28T19:09:40.409Z,17.73
2017-09-28T19:14:44.518Z,17.93
2017-09-28T19:19:48.370Z,23.13
2017-09-28T19:24:53.066Z,16.40
2017-09-28T19:29:58.977Z,24.00
2017-09-28T19:35:03.161Z,14.77
2017-09-28T19:40:05.766Z,15.77
2017-09-28T19:45:09.350Z,15.50
2017-09-28T19:50:11.108Z,18.87
2017-09-28T19:55:17.538Z,23.50
2017-09-28T20:00:20.298Z,17.73
2017-09-28T20:05:22.057Z,19.80
2017-09-28T20:10:23.852Z,15.20
2017-09-28T20:15:43.935Z,15.20
2017-09-28T20:20:49.752Z,15.47
2017-09-28T20:25:52.292Z,19.40
2017-09-28T20:30:54.177Z,15.30
2017-09-28T20:35:58.005Z,23.67
2017-09-28T20:40:59.896Z,13.10
2017-09-28T20:46:01.802Z,13.97
2017-09-28T20:51:03.684Z,14.87
2017-09-28T20:56:05.528Z,14.90
2017-09-28T21:01:09.039Z,18.23
2017-09-28T21:06:11.084Z,18.03
2017-09-28T21:11:14.048Z,13.97
2017-09-28T21:16:17.278Z,15.73
2017-09-28T21:21:19.088Z,14.80
2017-09-28T21:26:23.289Z,14.17
2017-09-28T21:31:27.134Z,14.80
2017-09-28T21:36:29.023Z,14.47
2017-09-28T21:41:30.891Z,22.53
2017-09-28T21:46:33.416Z,17.60
2017-09-28T21:51:35.267Z,14.73
2017-09-28T21:56:37.800Z,15.80
2017-09-28T22:01:40.554Z,15.50
2017-09-28T22:06:43.160Z,16.17
2017-09-28T22:11:45.140Z,17.50
2017-09-28T22:16:50.092Z,15.13
2017-09-28T22:21:52.996Z,24.27
2017-09-28T22:26:54.865Z,17.60
2017-09-28T22:32:01.664Z,18.43
2017-09-28T22:37:03.535Z,17.30
2017-09-28T22:42:05.363Z,15.67
2017-09-28T22:47:08.107Z,16.60
2017-09-28T22:52:10.593Z,16.40
2017-09-28T22:57:13.111Z,18.17
2017-09-28T23:02:15.992Z,17.03
2017-09-28T23:07:17.908Z,18.70
2017-09-28T23:12:19.748Z,17.13
2017-09-28T23:17:23.331Z,16.07
2017-09-28T23:22:25.208Z,16.37
2017-09-28T23:27:28.652Z,13.40
2017-09-28T23:32:31.304Z,14.50
2017-09-28T23:37:34.092Z,13.93
2017-09-28T23:42:35.995Z,17.43
2017-09-28T23:47:38.876Z,12.70
2017-09-28T23:52:41.116Z,12.30
2017-09-28T23:57:43.596Z,16.23
